Terminal Aerodrome Forecast
Issued by NWS

Home | Current Version | Previous Version | Graphics & Text | Print | Product List | Glossary On
Versions: 1 2 3 4 5 6 7 8 9 10 11 12 13 14 15 16 17 18
000
FTUS41 KCLE 200500
TAFFDY
TAF
KFDY 200534Z 2006/2106 27018G30KT P6SM -SHSN OVC035
     FM201000 25012G20KT P6SM OVC050
     FM201600 25020G32KT P6SM BKN035
     FM210000 25012G20KT P6SM SCT035=

USA.gov is the U.S. government's official web portal to all federal, state and local government web resources and services.